Time;durP1;ratioP1;P1;durP2;ratioP2;P2;SDS_P1;SDS_P2;PMS_P1;PMS_P2;Temp;Humidity;BMP_temperature;BMP_pressure;BME280_temperature;BME280_humidity;BME280_pressure;Samples;Min_cycle;Max_cycle;Signal;HPM_P1;HPM_P2
2023/04/24 00:00:05;;;;;;;1.35;0.47;;;11.60;99.90;;;;;;5029258;28;20159;-81
2023/04/24 00:02:32;;;;;;;0.50;0.50;;;11.60;99.90;;;;;;5044646;28;20029;-81
2023/04/24 00:05:02;;;;;;;1.75;0.38;;;11.50;99.90;;;;;;5010218;28;20025;-81
2023/04/24 00:07:30;;;;;;;2.75;0.52;;;11.60;99.90;;;;;;5010426;28;20098;-80
2023/04/24 00:09:56;;;;;;;1.73;0.50;;;11.50;99.90;;;;;;5046569;28;20052;-81
2023/04/24 00:12:22;;;;;;;0.63;0.43;;;11.50;99.90;;;;;;5026963;28;20033;-80
2023/04/24 00:14:47;;;;;;;2.42;0.55;;;11.50;99.90;;;;;;5027100;28;20211;-81
2023/04/24 00:17:13;;;;;;;1.60;0.50;;;11.40;99.90;;;;;;5026688;28;20120;-81
2023/04/24 00:19:38;;;;;;;2.25;0.40;;;11.40;99.90;;;;;;5010474;28;20037;-81
2023/04/24 00:22:04;;;;;;;0.80;0.43;;;11.30;99.90;;;;;;5007551;28;20040;-80
2023/04/24 00:24:29;;;;;;;5.70;0.50;;;11.30;99.90;;;;;;5023504;28;20091;-80
2023/04/24 00:26:55;;;;;;;1.40;0.60;;;11.30;99.90;;;;;;5024348;28;20044;-80
2023/04/24 00:29:21;;;;;;;0.55;0.50;;;11.30;99.90;;;;;;5028151;28;20149;-80
2023/04/24 00:31:47;;;;;;;1.08;0.70;;;11.20;99.90;;;;;;5007543;28;20040;-80
2023/04/24 00:34:13;;;;;;;0.57;0.57;;;11.10;99.90;;;;;;5026289;28;20020;-80
2023/04/24 00:36:39;;;;;;;0.57;0.47;;;11.10;99.90;;;;;;5027616;28;20033;-80
2023/04/24 00:39:04;;;;;;;0.82;0.68;;;11.10;99.90;;;;;;5010913;28;20094;-80
2023/04/24 00:41:30;;;;;;;1.05;0.70;;;11.00;99.90;;;;;;5027257;28;20477;-81
2023/04/24 00:43:56;;;;;;;0.75;0.50;;;11.00;99.90;;;;;;5010825;28;20461;-80
2023/04/24 00:46:21;;;;;;;1.17;0.90;;;11.00;99.90;;;;;;5011682;28;20033;-80
2023/04/24 00:48:47;;;;;;;0.80;0.63;;;10.80;99.90;;;;;;5024748;28;20107;-80
2023/04/24 00:51:12;;;;;;;0.98;0.55;;;10.90;99.90;;;;;;5009230;28;20056;-80
2023/04/24 00:53:38;;;;;;;2.83;0.68;;;10.80;99.90;;;;;;5028413;28;20036;-81
2023/04/24 00:56:03;;;;;;;1.55;0.93;;;10.90;99.90;;;;;;5006191;28;20032;-81
2023/04/24 00:58:30;;;;;;;0.57;0.57;;;10.90;99.90;;;;;;5025838;28;20112;-80
2023/04/24 01:00:57;;;;;;;1.40;0.60;;;10.80;99.90;;;;;;5026329;28;20021;-81
2023/04/24 01:03:26;;;;;;;1.00;0.38;;;10.80;99.90;;;;;;5008764;28;20033;-80
2023/04/24 01:05:52;;;;;;;0.50;0.50;;;10.80;99.90;;;;;;5022126;28;20525;-81
2023/04/24 01:08:18;;;;;;;2.55;0.80;;;10.60;99.90;;;;;;5010702;28;20577;-81
2023/04/24 01:10:46;;;;;;;2.50;1.08;;;10.60;99.90;;;;;;5010800;28;20033;-80
2023/04/24 01:13:13;;;;;;;1.25;1.02;;;10.50;99.90;;;;;;5026021;28;20055;-81
2023/04/24 01:15:38;;;;;;;2.05;1.00;;;10.50;99.90;;;;;;5026682;28;20110;-80
2023/04/24 01:18:04;;;;;;;1.00;0.60;;;10.40;99.90;;;;;;5044050;28;20135;-81
2023/04/24 01:20:30;;;;;;;1.52;1.10;;;10.50;99.90;;;;;;5022824;28;20487;-80
2023/04/24 01:22:56;;;;;;;3.08;1.40;;;10.40;99.90;;;;;;5006590;28;20037;-80
2023/04/24 01:25:22;;;;;;;2.45;1.40;;;10.40;99.90;;;;;;5007390;28;20021;-80
2023/04/24 01:27:47;;;;;;;2.28;1.45;;;10.50;99.90;;;;;;5043106;28;20635;-78
2023/04/24 01:30:13;;;;;;;1.50;1.00;;;10.40;99.90;;;;;;5023600;28;20029;-79
2023/04/24 01:32:39;;;;;;;4.07;1.58;;;10.40;99.90;;;;;;5043058;28;20052;-79
2023/04/24 01:35:05;;;;;;;2.28;1.65;;;10.50;99.90;;;;;;5009549;28;20033;-79
2023/04/24 01:37:32;;;;;;;4.90;1.67;;;10.40;99.90;;;;;;5024974;28;20587;-79
2023/04/24 01:39:57;;;;;;;1.67;0.90;;;10.40;99.90;;;;;;5040480;28;20439;-79
2023/04/24 01:42:23;;;;;;;2.00;1.75;;;10.40;99.90;;;;;;5007762;28;20033;-80
2023/04/24 01:44:49;;;;;;;3.80;1.50;;;10.40;99.90;;;;;;5031025;28;20037;-80
2023/04/24 01:47:14;;;;;;;1.77;1.35;;;10.20;99.90;;;;;;5025822;28;20078;-80
2023/04/24 01:49:40;;;;;;;4.35;2.03;;;10.30;99.90;;;;;;5026611;28;20090;-79
2023/04/24 01:52:06;;;;;;;3.60;1.83;;;10.30;99.90;;;;;;5007732;28;20037;-79
2023/04/24 01:54:31;;;;;;;3.63;1.67;;;10.20;99.90;;;;;;5005107;28;20033;-80
2023/04/24 01:56:57;;;;;;;2.88;1.13;;;10.40;99.90;;;;;;5023916;28;20053;-79
2023/04/24 01:59:22;;;;;;;1.50;1.38;;;10.40;99.90;;;;;;5024585;28;20476;-79
2023/04/24 02:01:48;;;;;;;12.52;4.60;;;10.30;99.90;;;;;;5007978;28;20480;-80
2023/04/24 02:04:15;;;;;;;1.73;1.30;;;10.30;99.90;;;;;;4997229;28;20029;-80
2023/04/24 02:06:40;;;;;;;3.35;2.28;;;10.20;99.90;;;;;;5024457;28;20037;-80
2023/04/24 02:09:08;;;;;;;1.75;1.20;;;10.20;99.90;;;;;;5007793;28;20498;-80
2023/04/24 02:11:34;;;;;;;3.97;2.10;;;10.10;99.90;;;;;;5026225;28;20047;-80
2023/04/24 02:14:00;;;;;;;5.45;1.73;;;10.00;99.90;;;;;;5010061;28;20492;-80
2023/04/24 02:16:30;;;;;;;3.88;2.40;;;9.90;99.90;;;;;;5008416;28;20060;-79
2023/04/24 02:18:55;;;;;;;4.32;2.17;;;10.00;99.90;;;;;;5034749;28;20036;-78
2023/04/24 02:21:21;;;;;;;5.03;3.50;;;10.00;99.90;;;;;;5007662;28;20025;-78
2023/04/24 02:23:46;;;;;;;5.53;2.70;;;9.90;99.90;;;;;;5007983;28;20033;-78
2023/04/24 02:26:12;;;;;;;6.72;3.75;;;9.90;99.90;;;;;;5004484;28;20021;-78
2023/04/24 02:28:37;;;;;;;6.00;3.75;;;9.80;99.90;;;;;;5023588;28;20436;-78
2023/04/24 02:31:03;;;;;;;4.78;3.65;;;9.80;99.90;;;;;;5025481;28;20025;-78
2023/04/24 02:33:29;;;;;;;5.72;2.78;;;9.80;99.90;;;;;;5023315;28;20432;-77
2023/04/24 02:35:54;;;;;;;6.57;3.60;;;9.90;99.90;;;;;;5031271;28;20276;-78
2023/04/24 02:38:20;;;;;;;9.43;6.47;;;9.80;99.90;;;;;;5008029;28;20488;-78
2023/04/24 02:40:45;;;;;;;7.10;3.83;;;9.80;99.90;;;;;;5008690;28;20528;-78
2023/04/24 02:43:11;;;;;;;6.07;3.25;;;9.80;99.90;;;;;;5008946;28;20480;-78
2023/04/24 02:45:38;;;;;;;7.18;3.92;;;9.80;99.90;;;;;;5004580;28;20464;-78
2023/04/24 02:48:03;;;;;;;8.55;4.60;;;9.90;99.90;;;;;;5008526;28;20029;-78
2023/04/24 02:50:29;;;;;;;6.88;3.97;;;9.90;99.90;;;;;;5004225;28;20029;-78
2023/04/24 02:52:54;;;;;;;10.25;5.00;;;9.90;99.90;;;;;;5006268;28;20947;-80
2023/04/24 02:55:20;;;;;;;10.43;5.25;;;9.90;99.90;;;;;;5024837;28;20493;-80
2023/04/24 02:57:45;;;;;;;10.27;6.88;;;9.90;99.90;;;;;;5005838;28;20401;-81
2023/04/24 03:00:12;;;;;;;9.73;5.43;;;9.90;99.90;;;;;;5008287;28;20032;-81
2023/04/24 03:02:37;;;;;;;11.90;7.35;;;9.90;99.90;;;;;;5007456;28;20120;-80
2023/04/24 03:05:04;;;;;;;4.18;2.78;;;9.90;99.90;;;;;;5008295;28;20025;-80
2023/04/24 03:07:30;;;;;;;10.82;6.30;;;9.80;99.90;;;;;;5000943;28;20359;-81
2023/04/24 03:09:57;;;;;;;12.23;6.45;;;9.90;99.90;;;;;;5023484;28;20029;-80
2023/04/24 03:12:23;;;;;;;13.35;5.00;;;9.90;99.90;;;;;;5023323;28;20040;-80
2023/04/24 03:14:49;;;;;;;10.48;5.75;;;9.80;99.90;;;;;;5033497;28;20044;-80
2023/04/24 03:17:15;;;;;;;6.55;4.80;;;9.80;99.90;;;;;;5026801;28;20053;-79
2023/04/24 03:19:40;;;;;;;8.23;6.50;;;9.80;99.90;;;;;;5010973;28;20041;-80
2023/04/24 03:22:06;;;;;;;6.53;4.10;;;9.90;99.90;;;;;;5027836;28;20037;-80
2023/04/24 03:24:31;;;;;;;11.65;7.63;;;9.90;99.90;;;;;;5010531;28;20563;-80
2023/04/24 03:26:57;;;;;;;6.03;3.10;;;9.90;99.90;;;;;;5029369;28;20396;-80
2023/04/24 03:29:23;;;;;;;12.93;6.63;;;10.00;99.90;;;;;;5028379;28;20033;-80
2023/04/24 03:31:49;;;;;;;13.23;6.88;;;10.00;99.90;;;;;;5027891;28;20098;-80
2023/04/24 03:34:14;;;;;;;8.00;4.28;;;9.90;99.90;;;;;;5010960;28;20021;-80
2023/04/24 03:36:40;;;;;;;12.38;6.10;;;9.90;99.90;;;;;;5028558;28;20033;-80
2023/04/24 03:39:05;;;;;;;10.95;5.75;;;10.00;99.90;;;;;;5027305;28;20053;-80
2023/04/24 03:41:31;;;;;;;16.10;6.63;;;9.90;99.90;;;;;;5019680;28;20027;-79
2023/04/24 03:43:57;;;;;;;16.02;5.05;;;10.00;99.90;;;;;;5010955;28;20154;-80
2023/04/24 03:46:22;;;;;;;14.07;7.97;;;9.80;99.90;;;;;;5007685;28;20032;-77
2023/04/24 03:48:48;;;;;;;6.03;3.38;;;9.90;99.90;;;;;;5026857;28;20033;-78
2023/04/24 03:51:13;;;;;;;7.10;4.57;;;10.00;99.90;;;;;;5043082;28;20025;-78
2023/04/24 03:53:39;;;;;;;12.48;5.88;;;9.90;99.90;;;;;;5009231;28;20126;-78
2023/04/24 03:56:05;;;;;;;3.13;2.67;;;10.00;99.90;;;;;;5041459;28;20396;-78
2023/04/24 03:58:30;;;;;;;12.23;4.93;;;10.00;99.90;;;;;;5025590;28;20045;-78
2023/04/24 04:00:57;;;;;;;9.80;6.15;;;10.00;99.90;;;;;;5009322;28;20033;-78
2023/04/24 04:03:23;;;;;;;10.07;6.72;;;10.00;99.90;;;;;;5026697;28;20021;-78
2023/04/24 04:05:49;;;;;;;6.82;4.03;;;10.00;99.90;;;;;;5010834;28;20043;-77
2023/04/24 04:08:14;;;;;;;13.02;5.88;;;9.90;99.90;;;;;;5007732;28;20095;-78
2023/04/24 04:10:40;;;;;;;10.38;4.43;;;9.90;99.90;;;;;;5006985;28;20049;-78
2023/04/24 04:13:06;;;;;;;10.98;4.82;;;10.00;99.90;;;;;;5023631;28;20029;-78
2023/04/24 04:15:32;;;;;;;13.63;8.38;;;10.00;99.90;;;;;;5009356;28;20174;-78
2023/04/24 04:17:57;;;;;;;11.10;5.07;;;10.00;99.90;;;;;;5029280;28;20124;-78
2023/04/24 04:20:23;;;;;;;10.90;5.25;;;9.90;99.90;;;;;;5008577;28;20037;-78
2023/04/24 04:22:48;;;;;;;11.68;6.70;;;9.90;99.90;;;;;;5042636;28;20124;-78
2023/04/24 04:25:14;;;;;;;11.75;5.03;;;10.00;99.90;;;;;;5023117;28;20033;-78
2023/04/24 04:27:41;;;;;;;10.25;6.10;;;9.90;99.90;;;;;;5026231;28;20088;-78
2023/04/24 04:30:09;;;;;;;6.75;4.05;;;9.80;99.90;;;;;;5010948;28;20416;-78
2023/04/24 04:32:35;;;;;;;4.50;2.80;;;9.90;99.90;;;;;;5027694;28;20041;-78
2023/04/24 04:35:03;;;;;;;11.27;6.90;;;9.90;99.90;;;;;;5026058;28;20485;-78
2023/04/24 04:37:31;;;;;;;6.47;4.10;;;10.00;99.90;;;;;;5022204;28;20591;-79
2023/04/24 04:39:57;;;;;;;5.55;3.17;;;9.90;99.90;;;;;;5008628;28;20048;-78
2023/04/24 04:42:23;;;;;;;7.45;4.25;;;9.90;99.90;;;;;;5008251;28;20715;-79
2023/04/24 04:44:50;;;;;;;9.73;6.30;;;9.90;99.90;;;;;;5000813;28;20404;-79
2023/04/24 04:47:17;;;;;;;13.57;7.25;;;10.00;99.90;;;;;;5009044;28;20676;-78
2023/04/24 04:49:42;;;;;;;10.35;6.72;;;9.90;99.90;;;;;;5024344;28;20041;-79
2023/04/24 04:52:08;;;;;;;11.95;7.05;;;9.90;99.90;;;;;;5025727;28;20404;-78
2023/04/24 04:54:34;;;;;;;10.05;5.53;;;9.90;99.90;;;;;;5038221;28;20037;-77
2023/04/24 04:57:00;;;;;;;7.50;5.15;;;10.00;99.90;;;;;;5006314;28;20425;-78
2023/04/24 04:59:26;;;;;;;11.15;4.35;;;9.90;99.90;;;;;;5025129;28;20032;-79
2023/04/24 05:01:52;;;;;;;7.20;4.80;;;9.90;99.90;;;;;;5026486;28;20036;-78
2023/04/24 05:04:18;;;;;;;6.68;5.72;;;10.00;99.90;;;;;;5026109;28;20029;-78
2023/04/24 05:06:43;;;;;;;12.07;7.07;;;9.90;99.90;;;;;;4673516;28;10000092;-78
2023/04/24 05:09:09;;;;;;;5.78;4.00;;;9.90;99.90;;;;;;5005521;28;20029;-78
2023/04/24 05:11:35;;;;;;;8.20;5.47;;;9.90;99.90;;;;;;5021838;28;20087;-78
2023/04/24 05:14:00;;;;;;;10.25;7.00;;;9.90;99.90;;;;;;5005771;28;20710;-78
2023/04/24 05:16:26;;;;;;;6.38;3.70;;;9.90;99.90;;;;;;5024268;28;20040;-78
2023/04/24 05:18:52;;;;;;;7.97;5.10;;;9.90;99.90;;;;;;5022346;28;20038;-78
2023/04/24 05:21:17;;;;;;;11.30;7.80;;;9.90;99.90;;;;;;5040549;28;20036;-77
2023/04/24 05:23:43;;;;;;;10.52;3.75;;;9.90;99.90;;;;;;5005710;28;20381;-78
2023/04/24 05:26:09;;;;;;;8.82;5.47;;;9.90;99.90;;;;;;5040193;28;20226;-78
2023/04/24 05:28:36;;;;;;;7.05;4.82;;;10.00;99.90;;;;;;5039993;28;20036;-77
2023/04/24 05:31:02;;;;;;;8.82;4.47;;;10.00;99.90;;;;;;5026040;28;20512;-78
2023/04/24 05:33:27;;;;;;;8.45;4.95;;;9.90;99.90;;;;;;5022134;28;20045;-78
2023/04/24 05:35:53;;;;;;;6.65;5.28;;;9.80;99.90;;;;;;5037477;28;20033;-79
2023/04/24 05:38:19;;;;;;;12.10;7.53;;;9.80;99.90;;;;;;5024124;28;20037;-77
2023/04/24 05:40:45;;;;;;;12.13;6.00;;;9.70;99.90;;;;;;5023199;28;20029;-78
2023/04/24 05:43:12;;;;;;;6.95;3.25;;;9.70;99.90;;;;;;5024292;28;20044;-78
2023/04/24 05:45:37;;;;;;;10.48;5.82;;;9.60;99.90;;;;;;5037848;28;20069;-78
2023/04/24 05:48:03;;;;;;;6.63;3.70;;;9.50;99.90;;;;;;5008279;28;20690;-78
2023/04/24 05:50:29;;;;;;;9.07;6.30;;;9.60;99.90;;;;;;5019424;28;20044;-77
2023/04/24 05:52:55;;;;;;;11.60;7.22;;;9.60;99.90;;;;;;5025349;28;20045;-77
2023/04/24 05:55:20;;;;;;;6.18;4.10;;;9.70;99.90;;;;;;5007437;28;20458;-76
2023/04/24 05:57:46;;;;;;;11.68;5.82;;;9.70;99.90;;;;;;5024123;28;20057;-78
2023/04/24 06:00:12;;;;;;;9.15;6.13;;;9.70;99.90;;;;;;5009249;28;20035;-76
2023/04/24 06:02:38;;;;;;;9.68;6.57;;;9.70;99.90;;;;;;5009056;28;20745;-77
2023/04/24 06:05:04;;;;;;;8.95;4.95;;;9.60;99.90;;;;;;5007350;28;20071;-77
2023/04/24 06:07:30;;;;;;;8.85;5.78;;;9.60;99.90;;;;;;5023653;28;20675;-76
2023/04/24 06:09:56;;;;;;;5.28;3.33;;;9.50;99.90;;;;;;5036469;28;20523;-77
2023/04/24 06:12:22;;;;;;;6.97;4.05;;;9.40;99.90;;;;;;5023329;28;20033;-77
2023/04/24 06:14:48;;;;;;;7.68;5.45;;;9.50;99.90;;;;;;5006059;28;20038;-77
2023/04/24 06:17:14;;;;;;;5.43;3.28;;;9.50;99.90;;;;;;5021204;28;20036;-78
2023/04/24 06:19:40;;;;;;;11.27;5.85;;;9.40;99.90;;;;;;5039840;28;20052;-77
2023/04/24 06:22:05;;;;;;;8.05;5.53;;;9.40;99.90;;;;;;5020943;28;20037;-77
2023/04/24 06:24:34;;;;;;;7.03;5.25;;;9.40;99.90;;;;;;5005440;28;20111;-77
2023/04/24 06:27:01;;;;;;;10.63;5.50;;;9.50;99.90;;;;;;5003278;28;20033;-76
2023/04/24 06:29:28;;;;;;;4.38;2.90;;;9.50;99.90;;;;;;5005329;28;20041;-76
2023/04/24 06:31:53;;;;;;;6.53;4.75;;;9.40;99.90;;;;;;5020710;28;20542;-77
2023/04/24 06:34:19;;;;;;;6.78;3.60;;;9.40;99.90;;;;;;5003838;28;20041;-77
2023/04/24 06:36:46;;;;;;;11.85;6.38;;;9.40;99.90;;;;;;4984338;28;20037;-77
2023/04/24 06:39:17;;;;;;;8.85;6.82;;;9.50;99.90;;;;;;5020076;28;20481;-77
2023/04/24 06:41:43;;;;;;;7.60;5.82;;;9.40;99.90;;;;;;5019184;28;20033;-76
2023/04/24 06:44:09;;;;;;;8.07;5.25;;;9.50;99.90;;;;;;5021383;28;20468;-78
2023/04/24 06:46:34;;;;;;;9.95;5.40;;;9.50;99.90;;;;;;5027978;28;20045;-77
2023/04/24 06:49:00;;;;;;;8.07;5.35;;;9.50;99.90;;;;;;5024120;28;20053;-77
2023/04/24 06:51:27;;;;;;;6.45;2.53;;;9.60;99.90;;;;;;5011066;28;20411;-79
2023/04/24 06:54:19;;;;;;;8.93;5.63;;;9.50;99.90;;;;;;4993061;28;20438;-78
2023/04/24 06:56:56;;;;;;;5.18;2.67;;;9.60;99.90;;;;;;4978481;28;20065;-78
2023/04/24 06:59:28;;;;;;;10.50;6.60;;;9.60;99.90;;;;;;5017472;28;20025;-79
2023/04/24 07:02:04;;;;;;;;;;;;;;;;;;;;;
2023/04/24 07:04:30;;;;;;;6.32;3.50;;;9.60;99.90;;;;;;5000208;28;20037;-78
2023/04/24 07:06:57;;;;;;;8.27;4.68;;;9.60;99.90;;;;;;5003817;28;20035;-78
2023/04/24 07:09:23;;;;;;;4.22;2.30;;;9.60;99.90;;;;;;5022980;28;20044;-78
2023/04/24 07:11:49;;;;;;;6.95;4.47;;;9.70;99.90;;;;;;5021626;28;20114;-78
2023/04/24 07:14:15;;;;;;;3.70;2.20;;;9.50;99.90;;;;;;5029007;28;20032;-78
2023/04/24 07:16:41;;;;;;;4.10;2.67;;;9.40;99.90;;;;;;5026034;28;20515;-78
2023/04/24 07:19:07;;;;;;;5.75;3.13;;;9.50;99.90;;;;;;5029474;28;20044;-82
2023/04/24 07:21:32;;;;;;;5.30;2.80;;;9.50;99.90;;;;;;5026326;28;20509;-81
2023/04/24 07:23:58;;;;;;;3.20;2.25;;;9.50;99.90;;;;;;5027933;28;20029;-81
2023/04/24 07:26:25;;;;;;;4.57;2.38;;;9.50;99.90;;;;;;5042793;28;20116;-80
2023/04/24 07:28:51;;;;;;;1.67;1.33;;;9.50;99.90;;;;;;5026385;28;20468;-80
2023/04/24 07:31:16;;;;;;;3.20;2.00;;;9.40;99.90;;;;;;5009906;28;20053;-79
2023/04/24 07:33:42;;;;;;;5.35;2.42;;;9.50;99.90;;;;;;5029967;28;20031;-81
2023/04/24 07:36:08;;;;;;;5.03;2.20;;;;;;;;;;5025525;28;20041;-81
2023/04/24 07:38:33;;;;;;;4.32;2.30;;;9.60;99.90;;;;;;5027996;28;20461;-79
2023/04/24 07:40:59;;;;;;;3.00;2.70;;;9.60;99.90;;;;;;5011051;28;20132;-80
2023/04/24 07:43:25;;;;;;;2.72;1.73;;;9.70;99.90;;;;;;5009083;28;20432;-81
2023/04/24 07:45:51;;;;;;;2.33;1.50;;;9.60;99.90;;;;;;5039217;28;20064;-80
2023/04/24 07:48:17;;;;;;;2.88;1.38;;;9.60;99.90;;;;;;5011036;28;20091;-80
2023/04/24 07:50:43;;;;;;;2.42;1.20;;;9.70;99.90;;;;;;5007249;28;20036;-80
2023/04/24 07:53:09;;;;;;;1.17;1.08;;;9.70;99.90;;;;;;5006464;28;20037;-80
2023/04/24 07:55:34;;;;;;;1.88;1.35;;;9.70;99.90;;;;;;5028288;28;20040;-79
2023/04/24 07:58:00;;;;;;;1.63;0.60;;;9.70;99.90;;;;;;5027554;28;20396;-79
2023/04/24 08:00:26;;;;;;;0.60;0.60;;;9.60;99.90;;;;;;5026180;28;20056;-80
2023/04/24 08:02:51;;;;;;;0.63;0.50;;;9.70;99.90;;;;;;5007290;28;20046;-80
2023/04/24 08:05:17;;;;;;;1.17;0.68;;;9.70;99.90;;;;;;5024630;28;20029;-80
2023/04/24 08:07:46;;;;;;;0.70;0.60;;;9.80;99.90;;;;;;5026937;28;20111;-81
2023/04/24 08:10:11;;;;;;;0.20;0.20;;;9.80;99.90;;;;;;5012606;28;20583;-80
2023/04/24 08:12:37;;;;;;;0.90;0.40;;;9.90;99.90;;;;;;5008350;28;20068;-80
2023/04/24 08:15:03;;;;;;;1.92;0.32;;;9.80;99.90;;;;;;5045039;28;20025;-80
2023/04/24 08:17:29;;;;;;;1.13;0.47;;;9.70;99.90;;;;;;5025595;28;20520;-80
2023/04/24 08:20:01;;;;;;;0.30;0.25;;;9.70;99.90;;;;;;5008976;28;20025;-80
2023/04/24 08:22:29;;;;;;;0.25;0.20;;;9.60;99.90;;;;;;5042418;28;20029;-80
2023/04/24 08:24:56;;;;;;;0.28;0.28;;;9.60;99.90;;;;;;5024155;28;20492;-80
2023/04/24 08:27:22;;;;;;;0.38;0.30;;;9.50;99.90;;;;;;5025657;28;20539;-81
2023/04/24 08:29:48;;;;;;;0.40;0.30;;;9.50;99.90;;;;;;5040570;28;20492;-79
2023/04/24 08:32:13;;;;;;;1.42;0.17;;;9.40;99.90;;;;;;5027153;28;20090;-79
2023/04/24 08:34:39;;;;;;;0.60;0.35;;;9.40;99.90;;;;;;5025444;28;20693;-78
2023/04/24 08:37:05;;;;;;;1.50;0.50;;;9.30;99.90;;;;;;5025078;28;20044;-78
2023/04/24 08:39:31;;;;;;;0.10;0.10;;;9.20;99.90;;;;;;5025081;28;20056;-80
2023/04/24 08:41:57;;;;;;;0.30;0.30;;;9.20;99.90;;;;;;5026150;28;20044;-78
2023/04/24 08:44:23;;;;;;;0.88;0.77;;;9.20;99.90;;;;;;5040569;28;20028;-78
2023/04/24 08:46:49;;;;;;;0.40;0.40;;;9.10;99.90;;;;;;5006594;28;20384;-79
2023/04/24 08:49:18;;;;;;;1.08;0.75;;;9.10;99.90;;;;;;5043213;28;20029;-80
2023/04/24 08:51:44;;;;;;;1.38;0.57;;;9.10;99.90;;;;;;5024051;28;20021;-79
2023/04/24 08:54:11;;;;;;;3.63;0.60;;;9.00;99.90;;;;;;5008772;28;20028;-79
2023/04/24 08:56:40;;;;;;;0.50;0.40;;;9.00;99.90;;;;;;5022884;28;20480;-79
2023/04/24 08:59:06;;;;;;;0.60;0.47;;;9.00;99.90;;;;;;5026520;28;20484;-78
2023/04/24 09:01:32;;;;;;;0.50;0.50;;;9.10;99.90;;;;;;4998936;28;20541;-79
2023/04/24 09:03:58;;;;;;;1.17;0.57;;;9.00;99.90;;;;;;5026355;28;20112;-79
2023/04/24 09:06:26;;;;;;;2.67;0.90;;;9.00;99.90;;;;;;5025813;28;20141;-79
2023/04/24 09:08:51;;;;;;;0.75;0.70;;;9.10;99.90;;;;;;5036172;28;20551;-79
2023/04/24 09:11:17;;;;;;;1.60;0.82;;;9.10;99.90;;;;;;5009577;28;20057;-79
2023/04/24 09:13:42;;;;;;;0.52;0.35;;;9.20;99.90;;;;;;5023551;28;20492;-80
2023/04/24 09:16:08;;;;;;;0.50;0.40;;;9.30;99.90;;;;;;5025492;28;20043;-79
2023/04/24 09:18:35;;;;;;;1.42;0.75;;;9.40;99.90;;;;;;5024292;28;20040;-80
2023/04/24 09:21:06;;;;;;;1.08;0.77;;;9.50;99.90;;;;;;5019435;28;20063;-78
2023/04/24 09:23:32;;;;;;;1.35;1.02;;;9.60;99.90;;;;;;5023483;28;20661;-79
2023/04/24 09:25:59;;;;;;;1.05;0.82;;;9.60;99.90;;;;;;5023575;28;20037;-78
2023/04/24 09:28:29;;;;;;;1.52;0.80;;;9.50;99.90;;;;;;5022580;28;20037;-78
2023/04/24 09:31:13;;;;;;;1.73;0.77;;;9.50;99.90;;;;;;5023127;28;20488;-79
2023/04/24 09:33:39;;;;;;;2.08;1.30;;;9.40;99.90;;;;;;5021185;28;20025;-79
2023/04/24 09:36:06;;;;;;;1.27;1.00;;;9.30;99.90;;;;;;5009453;28;20036;-78
2023/04/24 09:38:37;;;;;;;4.22;3.33;;;9.30;99.90;;;;;;5006582;28;20631;-77
2023/04/24 09:41:05;;;;;;;5.40;3.22;;;9.30;99.90;;;;;;5008014;28;20032;-78
2023/04/24 09:43:31;;;;;;;5.00;3.60;;;9.20;99.90;;;;;;5041172;28;20791;-78
2023/04/24 09:45:58;;;;;;;3.70;2.72;;;9.20;99.90;;;;;;5034645;28;20025;-78
2023/04/24 09:48:31;;;;;;;4.80;3.63;;;9.20;99.90;;;;;;5022485;28;20392;-78
2023/04/24 09:50:58;;;;;;;5.63;2.33;;;9.10;99.90;;;;;;5022138;28;20533;-78
2023/04/24 09:53:24;;;;;;;3.78;2.15;;;9.10;99.90;;;;;;5039713;28;20064;-79
2023/04/24 09:55:50;;;;;;;8.77;3.97;;;9.00;99.90;;;;;;5024158;28;20544;-79
2023/04/24 09:58:16;;;;;;;8.13;3.28;;;9.00;99.90;;;;;;5008538;28;20041;-78
2023/04/24 10:00:41;;;;;;;3.80;2.72;;;9.00;99.90;;;;;;5024535;28;20328;-79
2023/04/24 10:03:08;;;;;;;4.22;3.08;;;9.10;99.90;;;;;;5003391;28;20527;-78
2023/04/24 10:05:34;;;;;;;8.90;3.13;;;9.10;99.90;;;;;;5021746;28;20044;-79
2023/04/24 10:08:02;;;;;;;7.03;3.38;;;9.10;99.90;;;;;;5038855;28;20164;-78
2023/04/24 10:10:29;;;;;;;6.15;3.40;;;9.10;99.90;;;;;;5009048;28;20033;-78
2023/04/24 10:12:54;;;;;;;7.53;3.08;;;9.00;99.90;;;;;;5002310;28;20108;-78
2023/04/24 10:15:21;;;;;;;7.32;3.50;;;9.20;99.90;;;;;;5004495;28;20174;-78
2023/04/24 10:17:52;;;;;;;6.22;4.07;;;9.00;99.90;;;;;;5039501;28;20037;-78
2023/04/24 10:20:22;;;;;;;5.70;3.92;;;9.00;99.90;;;;;;5024078;28;20072;-78
2023/04/24 10:22:52;;;;;;;8.30;5.03;;;9.00;99.90;;;;;;5006402;28;20568;-78
2023/04/24 10:25:26;;;;;;;7.95;4.15;;;9.00;99.90;;;;;;5039893;28;20036;-78
2023/04/24 10:27:51;;;;;;;7.47;4.95;;;9.10;99.90;;;;;;5040837;28;20495;-78
2023/04/24 10:30:18;;;;;;;5.90;4.28;;;9.10;99.90;;;;;;5041152;28;20082;-78
2023/04/24 10:32:44;;;;;;;3.78;3.05;;;9.00;99.90;;;;;;5005731;28;20176;-79
2023/04/24 10:35:10;;;;;;;4.68;3.17;;;9.00;99.90;;;;;;5023958;28;20049;-78
2023/04/24 10:37:37;;;;;;;6.13;3.92;;;9.10;99.90;;;;;;5021115;28;20044;-79
2023/04/24 10:40:03;;;;;;;6.47;3.25;;;9.00;99.90;;;;;;5025083;28;20025;-78
2023/04/24 10:42:29;;;;;;;6.03;4.35;;;9.10;99.90;;;;;;5005295;28;20025;-78
2023/04/24 10:44:56;;;;;;;13.50;4.60;;;9.30;99.90;;;;;;5007586;28;20481;-78
2023/04/24 10:47:21;;;;;;;10.55;4.45;;;9.20;99.90;;;;;;5024190;28;20036;-78
2023/04/24 10:49:47;;;;;;;7.45;4.68;;;9.20;99.90;;;;;;5024153;28;20511;-78
2023/04/24 10:52:12;;;;;;;6.75;2.78;;;9.10;99.90;;;;;;5005924;28;20508;-78
2023/04/24 10:54:45;;;;;;;7.55;3.90;;;9.30;99.90;;;;;;5022653;28;20037;-79
2023/04/24 10:57:22;;;;;;;12.98;4.57;;;9.30;99.90;;;;;;5023784;28;20041;-79
2023/04/24 11:00:13;;;;;;;14.80;5.45;;;9.30;99.90;;;;;;5038805;28;20513;-78
2023/04/24 11:02:40;;;;;;;11.45;3.17;;;9.40;99.90;;;;;;5040487;28;20540;-78
2023/04/24 11:05:06;;;;;;;8.05;3.95;;;9.40;99.90;;;;;;5006535;28;20540;-78
2023/04/24 11:08:10;;;;;;;9.35;5.00;;;9.50;99.90;;;;;;5021907;28;20424;-78
2023/04/24 11:10:44;;;;;;;11.45;5.13;;;9.60;99.90;;;;;;5039514;28;20045;-78
2023/04/24 11:13:10;;;;;;;8.90;2.65;;;9.70;99.90;;;;;;5019809;28;20044;-78
2023/04/24 11:15:35;;;;;;;11.10;3.25;;;9.70;99.90;;;;;;5022096;28;20033;-78
2023/04/24 11:18:02;;;;;;;7.18;3.92;;;9.70;99.90;;;;;;5023707;28;20029;-79
2023/04/24 11:20:28;;;;;;;13.93;5.13;;;9.80;99.90;;;;;;5023972;28;20033;-78
2023/04/24 11:22:55;;;;;;;5.75;2.97;;;9.80;99.90;;;;;;5022486;28;20630;-78
2023/04/24 11:25:22;;;;;;;13.65;4.80;;;9.80;99.90;;;;;;5023250;28;20044;-79
2023/04/24 11:27:48;;;;;;;12.05;4.50;;;9.80;99.90;;;;;;5005474;28;20056;-78
2023/04/24 11:30:20;;;;;;;4.60;2.75;;;9.90;99.90;;;;;;5024201;28;20041;-79
2023/04/24 11:32:50;;;;;;;9.05;3.38;;;10.00;99.90;;;;;;5039108;28;20079;-79
2023/04/24 11:35:27;;;;;;;10.77;4.47;;;10.10;99.90;;;;;;5005474;28;20573;-79
2023/04/24 11:37:53;;;;;;;11.13;3.65;;;10.20;99.90;;;;;;5025004;28;20087;-79
2023/04/24 11:40:20;;;;;;;12.73;4.63;;;10.30;99.90;;;;;;5011586;28;20032;-79
2023/04/24 11:42:47;;;;;;;5.35;3.20;;;10.20;99.90;;;;;;5041946;28;20033;-79
2023/04/24 11:45:23;;;;;;;10.02;3.72;;;10.00;99.90;;;;;;5022443;28;20661;-79
2023/04/24 11:47:49;;;;;;;6.78;3.38;;;10.00;99.90;;;;;;5028762;28;20396;-79
2023/04/24 11:50:15;;;;;;;11.30;4.15;;;9.80;99.90;;;;;;5025992;28;20036;-79
2023/04/24 11:52:42;;;;;;;10.90;3.00;;;9.80;99.90;;;;;;5010437;28;20045;-79
2023/04/24 11:55:14;;;;;;;10.70;3.72;;;9.80;99.90;;;;;;5025767;28;20029;-79
2023/04/24 11:57:44;;;;;;;5.32;2.58;;;9.70;99.90;;;;;;5040823;28;20072;-80
2023/04/24 12:00:15;;;;;;;12.88;3.20;;;9.70;99.90;;;;;;5028145;28;21363;-79
2023/04/24 12:02:41;;;;;;;7.72;3.00;;;9.70;99.90;;;;;;5026241;28;20116;-79
2023/04/24 12:05:07;;;;;;;6.93;2.65;;;9.70;99.90;;;;;;5043156;28;20457;-80
2023/04/24 12:07:45;;;;;;;12.40;3.08;;;9.80;99.90;;;;;;5024053;28;20124;-79
2023/04/24 12:10:10;;;;;;;6.18;3.03;;;9.90;99.90;;;;;;5011548;28;20037;-80
2023/04/24 12:12:36;;;;;;;7.45;2.78;;;10.10;99.90;;;;;;5024884;28;20979;-80
2023/04/24 12:15:05;;;;;;;17.33;4.10;;;10.40;99.90;;;;;;5041532;28;20037;-80
2023/04/24 12:17:32;;;;;;;5.97;2.60;;;10.60;99.90;;;;;;5007001;28;20048;-80
2023/04/24 12:20:03;;;;;;;11.35;3.97;;;10.90;99.90;;;;;;5025454;28;20033;-80
2023/04/24 12:22:49;;;;;;;5.65;2.08;;;11.20;99.90;;;;;;5024199;28;20493;-79
2023/04/24 12:25:15;;;;;;;3.65;1.48;;;11.50;99.90;;;;;;5022158;28;20081;-79
2023/04/24 12:27:41;;;;;;;8.25;3.42;;;11.70;99.90;;;;;;5026846;28;20044;-80
2023/04/24 12:30:14;;;;;;;9.77;3.78;;;11.70;99.90;;;;;;5044353;28;20124;-80
2023/04/24 12:32:46;;;;;;;8.98;3.22;;;11.80;99.90;;;;;;5020229;28;20057;-80
2023/04/24 12:35:12;;;;;;;4.07;1.80;;;11.70;99.90;;;;;;5011863;28;20040;-80
2023/04/24 12:37:39;;;;;;;9.90;2.80;;;11.70;99.90;;;;;;5024228;28;20030;-80
2023/04/24 12:40:09;;;;;;;6.43;3.03;;;11.60;99.90;;;;;;5010004;28;20037;-80
2023/04/24 12:42:35;;;;;;;5.65;2.53;;;11.50;99.90;;;;;;5024976;28;20080;-80
2023/04/24 12:45:04;;;;;;;3.05;1.67;;;11.50;99.90;;;;;;5010425;28;20029;-80
2023/04/24 12:47:38;;;;;;;4.60;2.36;;;11.30;99.90;;;;;;4920964;28;10001340;-80
2023/04/24 12:50:04;;;;;;;4.53;2.33;;;11.30;99.90;;;;;;4675720;28;9999761;-80